sensor_id;sensor_type;location;lat;lon;timestamp;temperature;humidity
70830;SHT30;58451;51.550;7.208;2023-10-08T00:00:55;18.74;67.85
70830;SHT30;58451;51.550;7.208;2023-10-08T00:02:35;18.74;67.85
70830;SHT30;58451;51.550;7.208;2023-10-08T00:04:08;18.73;67.97
70830;SHT30;58451;51.550;7.208;2023-10-08T00:05:50;18.73;67.85
70830;SHT30;58451;51.550;7.208;2023-10-08T00:07:22;18.71;67.75
70830;SHT30;58451;51.550;7.208;2023-10-08T00:08:56;18.72;67.70
70830;SHT30;58451;51.550;7.208;2023-10-08T00:10:40;18.70;67.85
70830;SHT30;58451;51.550;7.208;2023-10-08T00:12:12;18.70;67.78
70830;SHT30;58451;51.550;7.208;2023-10-08T00:13:45;18.68;67.73
70830;SHT30;58451;51.550;7.208;2023-10-08T00:15:20;18.67;67.75
70830;SHT30;58451;51.550;7.208;2023-10-08T00:16:52;18.67;67.88
70830;SHT30;58451;51.550;7.208;2023-10-08T00:18:24;18.65;68.00
70830;SHT30;58451;51.550;7.208;2023-10-08T00:19:57;18.65;67.93
70830;SHT30;58451;51.550;7.208;2023-10-08T00:21:31;18.64;68.02
70830;SHT30;58451;51.550;7.208;2023-10-08T00:23:05;18.62;67.93
70830;SHT30;58451;51.550;7.208;2023-10-08T00:24:41;18.61;68.03
70830;SHT30;58451;51.550;7.208;2023-10-08T00:26:13;18.60;67.95
70830;SHT30;58451;51.550;7.208;2023-10-08T00:27:50;18.58;68.22
70830;SHT30;58451;51.550;7.208;2023-10-08T00:29:24;18.58;68.22
70830;SHT30;58451;51.550;7.208;2023-10-08T00:30:56;18.55;68.05
70830;SHT30;58451;51.550;7.208;2023-10-08T00:32:28;18.55;68.12
70830;SHT30;58451;51.550;7.208;2023-10-08T00:34:02;18.53;68.03
70830;SHT30;58451;51.550;7.208;2023-10-08T00:35:37;18.53;68.17
70830;SHT30;58451;51.550;7.208;2023-10-08T00:37:11;18.52;68.13
70830;SHT30;58451;51.550;7.208;2023-10-08T00:38:46;18.50;68.10
70830;SHT30;58451;51.550;7.208;2023-10-08T00:40:21;18.51;68.20
70830;SHT30;58451;51.550;7.208;2023-10-08T00:41:54;18.48;68.30
70830;SHT30;58451;51.550;7.208;2023-10-08T00:43:36;18.47;68.43
70830;SHT30;58451;51.550;7.208;2023-10-08T00:45:08;18.46;68.53
70830;SHT30;58451;51.550;7.208;2023-10-08T00:46:44;18.44;68.48
70830;SHT30;58451;51.550;7.208;2023-10-08T00:48:19;18.44;68.43
70830;SHT30;58451;51.550;7.208;2023-10-08T00:50:00;18.42;68.72
70830;SHT30;58451;51.550;7.208;2023-10-08T00:51:37;18.41;68.77
70830;SHT30;58451;51.550;7.208;2023-10-08T00:53:12;18.40;68.58
70830;SHT30;58451;51.550;7.208;2023-10-08T00:54:53;18.40;68.65
70830;SHT30;58451;51.550;7.208;2023-10-08T00:56:26;18.38;68.57
70830;SHT30;58451;51.550;7.208;2023-10-08T00:58:20;18.38;68.75
70830;SHT30;58451;51.550;7.208;2023-10-08T00:59:58;18.36;68.67
70830;SHT30;58451;51.550;7.208;2023-10-08T01:01:31;18.35;68.67
70830;SHT30;58451;51.550;7.208;2023-10-08T01:03:05;18.35;68.75
70830;SHT30;58451;51.550;7.208;2023-10-08T01:04:46;18.33;68.72
70830;SHT30;58451;51.550;7.208;2023-10-08T01:06:18;18.33;68.78
70830;SHT30;58451;51.550;7.208;2023-10-08T01:07:51;18.33;68.70
70830;SHT30;58451;51.550;7.208;2023-10-08T01:09:25;18.32;68.67
70830;SHT30;58451;51.550;7.208;2023-10-08T01:11:22;18.31;68.70
70830;SHT30;58451;51.550;7.208;2023-10-08T01:13:15;18.28;68.83
70830;SHT30;58451;51.550;7.208;2023-10-08T01:14:51;18.28;68.77
70830;SHT30;58451;51.550;7.208;2023-10-08T01:16:25;18.28;68.85
70830;SHT30;58451;51.550;7.208;2023-10-08T01:18:04;18.27;68.87
70830;SHT30;58451;51.550;7.208;2023-10-08T01:19:40;18.27;68.83
70830;SHT30;58451;51.550;7.208;2023-10-08T01:21:16;18.28;68.83
70830;SHT30;58451;51.550;7.208;2023-10-08T01:23:07;18.29;68.85
70830;SHT30;58451;51.550;7.208;2023-10-08T01:24:44;18.29;68.87
70830;SHT30;58451;51.550;7.208;2023-10-08T01:26:20;18.30;68.95
70830;SHT30;58451;51.550;7.208;2023-10-08T01:27:57;18.31;68.85
70830;SHT30;58451;51.550;7.208;2023-10-08T01:29:32;18.32;68.85
70830;SHT30;58451;51.550;7.208;2023-10-08T01:31:04;18.32;68.87
70830;SHT30;58451;51.550;7.208;2023-10-08T01:32:38;18.34;68.82
70830;SHT30;58451;51.550;7.208;2023-10-08T01:34:10;18.32;68.90
70830;SHT30;58451;51.550;7.208;2023-10-08T01:35:47;18.31;68.95
70830;SHT30;58451;51.550;7.208;2023-10-08T01:37:21;18.31;68.95
70830;SHT30;58451;51.550;7.208;2023-10-08T01:38:53;18.28;68.92
70830;SHT30;58451;51.550;7.208;2023-10-08T01:40:26;18.28;68.92
70830;SHT30;58451;51.550;7.208;2023-10-08T01:42:00;18.27;69.02
70830;SHT30;58451;51.550;7.208;2023-10-08T01:43:32;18.26;68.90
70830;SHT30;58451;51.550;7.208;2023-10-08T01:45:04;18.25;68.92
70830;SHT30;58451;51.550;7.208;2023-10-08T01:46:40;18.25;68.90
70830;SHT30;58451;51.550;7.208;2023-10-08T01:48:12;18.24;68.95
70830;SHT30;58451;51.550;7.208;2023-10-08T01:49:44;18.23;69.08
70830;SHT30;58451;51.550;7.208;2023-10-08T01:51:18;18.22;69.12
70830;SHT30;58451;51.550;7.208;2023-10-08T01:52:57;18.21;68.97
70830;SHT30;58451;51.550;7.208;2023-10-08T01:54:32;18.20;68.95
70830;SHT30;58451;51.550;7.208;2023-10-08T01:56:08;18.20;68.93
70830;SHT30;58451;51.550;7.208;2023-10-08T01:57:42;18.20;68.98
70830;SHT30;58451;51.550;7.208;2023-10-08T01:59:15;18.20;68.90
70830;SHT30;58451;51.550;7.208;2023-10-08T02:00:48;18.21;68.90
70830;SHT30;58451;51.550;7.208;2023-10-08T02:02:23;18.20;68.85
70830;SHT30;58451;51.550;7.208;2023-10-08T02:03:55;18.20;68.97
70830;SHT30;58451;51.550;7.208;2023-10-08T02:05:27;18.20;68.88
70830;SHT30;58451;51.550;7.208;2023-10-08T02:07:02;18.20;68.90
70830;SHT30;58451;51.550;7.208;2023-10-08T02:08:35;18.18;68.85
70830;SHT30;58451;51.550;7.208;2023-10-08T02:10:08;18.19;68.95
70830;SHT30;58451;51.550;7.208;2023-10-08T02:11:45;18.18;68.90
70830;SHT30;58451;51.550;7.208;2023-10-08T02:13:25;18.18;68.87
70830;SHT30;58451;51.550;7.208;2023-10-08T02:14:57;18.16;68.90
70830;SHT30;58451;51.550;7.208;2023-10-08T02:16:29;18.16;68.88
70830;SHT30;58451;51.550;7.208;2023-10-08T02:18:01;18.16;68.90
70830;SHT30;58451;51.550;7.208;2023-10-08T02:19:35;18.16;68.95
70830;SHT30;58451;51.550;7.208;2023-10-08T02:21:10;18.15;68.98
70830;SHT30;58451;51.550;7.208;2023-10-08T02:22:42;18.13;68.95
70830;SHT30;58451;51.550;7.208;2023-10-08T02:24:14;18.11;69.00
70830;SHT30;58451;51.550;7.208;2023-10-08T02:25:47;18.10;68.92
70830;SHT30;58451;51.550;7.208;2023-10-08T02:27:19;18.09;69.13
70830;SHT30;58451;51.550;7.208;2023-10-08T02:28:51;18.06;69.03
70830;SHT30;58451;51.550;7.208;2023-10-08T02:30:23;18.05;69.07
70830;SHT30;58451;51.550;7.208;2023-10-08T02:31:58;18.03;69.20
70830;SHT30;58451;51.550;7.208;2023-10-08T02:33:31;18.02;69.32
70830;SHT30;58451;51.550;7.208;2023-10-08T02:35:03;18.00;69.30
70830;SHT30;58451;51.550;7.208;2023-10-08T02:36:36;17.98;69.27
70830;SHT30;58451;51.550;7.208;2023-10-08T02:38:11;17.95;69.53
70830;SHT30;58451;51.550;7.208;2023-10-08T02:39:48;17.93;69.45
70830;SHT30;58451;51.550;7.208;2023-10-08T02:41:20;17.92;69.40
70830;SHT30;58451;51.550;7.208;2023-10-08T02:42:53;17.92;69.60
70830;SHT30;58451;51.550;7.208;2023-10-08T02:44:29;17.89;69.52
70830;SHT30;58451;51.550;7.208;2023-10-08T02:46:02;17.89;69.53
70830;SHT30;58451;51.550;7.208;2023-10-08T02:47:46;17.86;69.63
70830;SHT30;58451;51.550;7.208;2023-10-08T02:49:19;17.83;70.00
70830;SHT30;58451;51.550;7.208;2023-10-08T02:50:56;17.83;70.00
70830;SHT30;58451;51.550;7.208;2023-10-08T02:52:40;17.82;69.85
70830;SHT30;58451;51.550;7.208;2023-10-08T02:54:12;17.81;69.75
70830;SHT30;58451;51.550;7.208;2023-10-08T02:55:49;17.79;69.73
70830;SHT30;58451;51.550;7.208;2023-10-08T02:57:22;17.81;69.88
70830;SHT30;58451;51.550;7.208;2023-10-08T02:58:54;17.80;69.87
70830;SHT30;58451;51.550;7.208;2023-10-08T03:00:26;17.79;69.87
70830;SHT30;58451;51.550;7.208;2023-10-08T03:02:01;17.80;69.93
70830;SHT30;58451;51.550;7.208;2023-10-08T03:03:33;17.80;69.90
70830;SHT30;58451;51.550;7.208;2023-10-08T03:05:05;17.79;69.83
70830;SHT30;58451;51.550;7.208;2023-10-08T03:06:40;17.79;69.92
70830;SHT30;58451;51.550;7.208;2023-10-08T03:08:13;17.80;69.95
70830;SHT30;58451;51.550;7.208;2023-10-08T03:09:51;17.79;69.93
70830;SHT30;58451;51.550;7.208;2023-10-08T03:11:35;17.79;69.90
70830;SHT30;58451;51.550;7.208;2023-10-08T03:13:08;17.78;69.90
70830;SHT30;58451;51.550;7.208;2023-10-08T03:14:41;17.78;69.93
70830;SHT30;58451;51.550;7.208;2023-10-08T03:16:21;17.78;69.90
70830;SHT30;58451;51.550;7.208;2023-10-08T03:18:01;17.78;69.80
70830;SHT30;58451;51.550;7.208;2023-10-08T03:19:42;17.77;69.80
70830;SHT30;58451;51.550;7.208;2023-10-08T03:21:16;17.75;69.80
70830;SHT30;58451;51.550;7.208;2023-10-08T03:23:14;17.75;69.80
70830;SHT30;58451;51.550;7.208;2023-10-08T03:25:05;17.73;69.83
70830;SHT30;58451;51.550;7.208;2023-10-08T03:26:47;17.73;69.90
70830;SHT30;58451;51.550;7.208;2023-10-08T03:28:27;17.72;69.90
70830;SHT30;58451;51.550;7.208;2023-10-08T03:30:06;17.71;69.93
70830;SHT30;58451;51.550;7.208;2023-10-08T03:31:45;17.69;69.95
70830;SHT30;58451;51.550;7.208;2023-10-08T03:33:24;17.68;69.90
70830;SHT30;58451;51.550;7.208;2023-10-08T03:34:58;17.69;69.88
70830;SHT30;58451;51.550;7.208;2023-10-08T03:36:31;17.68;69.97
70830;SHT30;58451;51.550;7.208;2023-10-08T03:38:06;17.67;69.93
70830;SHT30;58451;51.550;7.208;2023-10-08T03:39:53;17.65;69.88
70830;SHT30;58451;51.550;7.208;2023-10-08T03:41:43;17.64;69.92
70830;SHT30;58451;51.550;7.208;2023-10-08T03:43:38;17.63;69.92
70830;SHT30;58451;51.550;7.208;2023-10-08T03:45:24;17.61;69.95
70830;SHT30;58451;51.550;7.208;2023-10-08T03:47:15;17.60;69.78
70830;SHT30;58451;51.550;7.208;2023-10-08T03:48:50;17.61;69.90
70830;SHT30;58451;51.550;7.208;2023-10-08T03:50:28;17.59;69.90
70830;SHT30;58451;51.550;7.208;2023-10-08T03:52:12;17.58;69.80
70830;SHT30;58451;51.550;7.208;2023-10-08T03:53:47;17.57;69.83
70830;SHT30;58451;51.550;7.208;2023-10-08T03:55:30;17.54;69.90
70830;SHT30;58451;51.550;7.208;2023-10-08T03:57:06;17.52;69.88
70830;SHT30;58451;51.550;7.208;2023-10-08T03:58:45;17.52;69.87
70830;SHT30;58451;51.550;7.208;2023-10-08T04:00:18;17.51;69.92
70830;SHT30;58451;51.550;7.208;2023-10-08T04:02:00;17.50;69.90
70830;SHT30;58451;51.550;7.208;2023-10-08T04:03:46;17.49;69.97
70830;SHT30;58451;51.550;7.208;2023-10-08T04:05:24;17.48;69.95
70830;SHT30;58451;51.550;7.208;2023-10-08T04:07:04;17.47;70.08
70830;SHT30;58451;51.550;7.208;2023-10-08T04:09:09;17.44;70.02
70830;SHT30;58451;51.550;7.208;2023-10-08T04:10:42;17.43;70.05
70830;SHT30;58451;51.550;7.208;2023-10-08T04:12:14;17.42;70.12
70830;SHT30;58451;51.550;7.208;2023-10-08T04:13:50;17.43;70.05
70830;SHT30;58451;51.550;7.208;2023-10-08T04:15:23;17.42;70.03
70830;SHT30;58451;51.550;7.208;2023-10-08T04:16:55;17.41;70.08
70830;SHT30;58451;51.550;7.208;2023-10-08T04:18:27;17.41;70.00
70830;SHT30;58451;51.550;7.208;2023-10-08T04:19:59;17.39;70.03
70830;SHT30;58451;51.550;7.208;2023-10-08T04:21:31;17.41;70.00
70830;SHT30;58451;51.550;7.208;2023-10-08T04:23:06;17.40;70.02
70830;SHT30;58451;51.550;7.208;2023-10-08T04:24:45;17.39;70.08
70830;SHT30;58451;51.550;7.208;2023-10-08T04:26:18;17.38;70.10
70830;SHT30;58451;51.550;7.208;2023-10-08T04:27:56;17.37;70.20
70830;SHT30;58451;51.550;7.208;2023-10-08T04:29:32;17.36;70.10
70830;SHT30;58451;51.550;7.208;2023-10-08T04:31:08;17.34;70.10
70830;SHT30;58451;51.550;7.208;2023-10-08T04:32:55;17.33;70.18
70830;SHT30;58451;51.550;7.208;2023-10-08T04:34:29;17.33;70.12
70830;SHT30;58451;51.550;7.208;2023-10-08T04:36:01;17.31;70.05
70830;SHT30;58451;51.550;7.208;2023-10-08T04:37:33;17.31;70.05
70830;SHT30;58451;51.550;7.208;2023-10-08T04:39:05;17.31;70.02
70830;SHT30;58451;51.550;7.208;2023-10-08T04:40:45;17.31;70.15
70830;SHT30;58451;51.550;7.208;2023-10-08T04:42:20;17.28;70.18
70830;SHT30;58451;51.550;7.208;2023-10-08T04:43:57;17.28;70.13
70830;SHT30;58451;51.550;7.208;2023-10-08T04:45:34;17.27;70.23
70830;SHT30;58451;51.550;7.208;2023-10-08T04:47:06;17.25;70.23
70830;SHT30;58451;51.550;7.208;2023-10-08T04:48:59;17.24;70.20
70830;SHT30;58451;51.550;7.208;2023-10-08T04:50:36;17.22;70.27
70830;SHT30;58451;51.550;7.208;2023-10-08T04:52:08;17.21;70.30
70830;SHT30;58451;51.550;7.208;2023-10-08T04:53:45;17.20;70.35
70830;SHT30;58451;51.550;7.208;2023-10-08T04:55:19;17.18;70.30
70830;SHT30;58451;51.550;7.208;2023-10-08T04:57:00;17.17;70.22
70830;SHT30;58451;51.550;7.208;2023-10-08T04:58:37;17.17;70.20
70830;SHT30;58451;51.550;7.208;2023-10-08T05:00:11;17.16;70.27
70830;SHT30;58451;51.550;7.208;2023-10-08T05:01:47;17.15;70.32
70830;SHT30;58451;51.550;7.208;2023-10-08T05:03:20;17.14;70.35
70830;SHT30;58451;51.550;7.208;2023-10-08T05:04:54;17.13;70.30
70830;SHT30;58451;51.550;7.208;2023-10-08T05:06:41;17.11;70.42
70830;SHT30;58451;51.550;7.208;2023-10-08T05:08:16;17.11;70.37
70830;SHT30;58451;51.550;7.208;2023-10-08T05:09:56;17.11;70.52
70830;SHT30;58451;51.550;7.208;2023-10-08T05:11:37;17.11;70.48
70830;SHT30;58451;51.550;7.208;2023-10-08T05:13:22;17.12;70.53
70830;SHT30;58451;51.550;7.208;2023-10-08T05:15:02;17.11;70.53
70830;SHT30;58451;51.550;7.208;2023-10-08T05:16:46;17.12;70.72
70830;SHT30;58451;51.550;7.208;2023-10-08T05:18:44;17.11;70.68
70830;SHT30;58451;51.550;7.208;2023-10-08T05:20:34;17.11;70.75
70830;SHT30;58451;51.550;7.208;2023-10-08T05:22:32;17.10;70.88
70830;SHT30;58451;51.550;7.208;2023-10-08T05:24:05;17.08;70.72
70830;SHT30;58451;51.550;7.208;2023-10-08T05:25:43;17.08;70.65
70830;SHT30;58451;51.550;7.208;2023-10-08T05:27:30;17.08;70.70
70830;SHT30;58451;51.550;7.208;2023-10-08T05:29:20;17.08;70.72
70830;SHT30;58451;51.550;7.208;2023-10-08T05:31:11;17.08;70.70
70830;SHT30;58451;51.550;7.208;2023-10-08T05:33:03;17.06;70.75
70830;SHT30;58451;51.550;7.208;2023-10-08T05:34:51;17.05;70.87
70830;SHT30;58451;51.550;7.208;2023-10-08T05:36:43;17.03;70.82
70830;SHT30;58451;51.550;7.208;2023-10-08T05:38:35;17.03;70.88
70830;SHT30;58451;51.550;7.208;2023-10-08T05:40:08;17.01;71.10
70830;SHT30;58451;51.550;7.208;2023-10-08T05:42:03;17.01;71.18
70830;SHT30;58451;51.550;7.208;2023-10-08T05:43:54;16.99;71.17
70830;SHT30;58451;51.550;7.208;2023-10-08T05:45:45;16.97;71.47
70830;SHT30;58451;51.550;7.208;2023-10-08T05:47:24;16.94;71.23
70830;SHT30;58451;51.550;7.208;2023-10-08T05:49:05;16.93;71.67
70830;SHT30;58451;51.550;7.208;2023-10-08T05:50:39;16.90;71.63
70830;SHT30;58451;51.550;7.208;2023-10-08T05:52:14;16.91;71.47
70830;SHT30;58451;51.550;7.208;2023-10-08T05:53:57;16.90;71.48
70830;SHT30;58451;51.550;7.208;2023-10-08T05:55:29;16.90;71.65
70830;SHT30;58451;51.550;7.208;2023-10-08T05:57:06;16.88;71.78
70830;SHT30;58451;51.550;7.208;2023-10-08T05:58:43;16.88;71.70
70830;SHT30;58451;51.550;7.208;2023-10-08T06:00:31;16.88;71.60
70830;SHT30;58451;51.550;7.208;2023-10-08T06:02:06;16.90;71.55
70830;SHT30;58451;51.550;7.208;2023-10-08T06:04:00;16.89;71.58
70830;SHT30;58451;51.550;7.208;2023-10-08T06:05:35;16.90;71.58
70830;SHT30;58451;51.550;7.208;2023-10-08T06:07:15;16.91;71.73
70830;SHT30;58451;51.550;7.208;2023-10-08T06:09:04;16.90;71.65
70830;SHT30;58451;51.550;7.208;2023-10-08T06:10:52;16.89;71.65
70830;SHT30;58451;51.550;7.208;2023-10-08T06:12:29;16.90;71.58
70830;SHT30;58451;51.550;7.208;2023-10-08T06:14:16;16.90;71.62
70830;SHT30;58451;51.550;7.208;2023-10-08T06:15:58;16.89;71.62
70830;SHT30;58451;51.550;7.208;2023-10-08T06:17:30;16.88;71.57
70830;SHT30;58451;51.550;7.208;2023-10-08T06:19:20;16.87;71.58
70830;SHT30;58451;51.550;7.208;2023-10-08T06:20:56;16.89;71.63
70830;SHT30;58451;51.550;7.208;2023-10-08T06:22:40;16.89;71.62
70830;SHT30;58451;51.550;7.208;2023-10-08T06:24:12;16.90;71.60
70830;SHT30;58451;51.550;7.208;2023-10-08T06:25:49;16.90;71.63
70830;SHT30;58451;51.550;7.208;2023-10-08T06:27:28;16.90;71.82
70830;SHT30;58451;51.550;7.208;2023-10-08T06:29:01;16.90;71.78
70830;SHT30;58451;51.550;7.208;2023-10-08T06:30:44;16.90;71.90
70830;SHT30;58451;51.550;7.208;2023-10-08T06:32:17;16.92;72.02
70830;SHT30;58451;51.550;7.208;2023-10-08T06:33:53;16.91;71.98
70830;SHT30;58451;51.550;7.208;2023-10-08T06:35:26;16.91;72.07
70830;SHT30;58451;51.550;7.208;2023-10-08T06:37:00;16.92;72.05
70830;SHT30;58451;51.550;7.208;2023-10-08T06:38:33;16.94;72.12
70830;SHT30;58451;51.550;7.208;2023-10-08T06:40:06;16.93;72.15
70830;SHT30;58451;51.550;7.208;2023-10-08T06:41:59;16.94;72.20
70830;SHT30;58451;51.550;7.208;2023-10-08T06:43:37;16.94;72.23
70830;SHT30;58451;51.550;7.208;2023-10-08T06:45:09;16.94;72.37
70830;SHT30;58451;51.550;7.208;2023-10-08T06:46:45;16.94;72.42
70830;SHT30;58451;51.550;7.208;2023-10-08T06:48:21;16.93;72.38
70830;SHT30;58451;51.550;7.208;2023-10-08T06:49:56;16.94;72.48
70830;SHT30;58451;51.550;7.208;2023-10-08T06:51:29;16.94;72.43
70830;SHT30;58451;51.550;7.208;2023-10-08T06:53:04;16.94;72.48
70830;SHT30;58451;51.550;7.208;2023-10-08T06:54:39;16.91;72.57
70830;SHT30;58451;51.550;7.208;2023-10-08T06:56:11;16.89;72.55
70830;SHT30;58451;51.550;7.208;2023-10-08T06:57:45;16.88;72.65
70830;SHT30;58451;51.550;7.208;2023-10-08T06:59:20;16.88;72.70
70830;SHT30;58451;51.550;7.208;2023-10-08T07:00:57;16.89;72.75
70830;SHT30;58451;51.550;7.208;2023-10-08T07:02:30;16.90;72.70
70830;SHT30;58451;51.550;7.208;2023-10-08T07:04:02;16.92;72.67
70830;SHT30;58451;51.550;7.208;2023-10-08T07:05:38;16.94;72.73
70830;SHT30;58451;51.550;7.208;2023-10-08T07:07:13;16.97;72.82
70830;SHT30;58451;51.550;7.208;2023-10-08T07:08:50;16.97;72.80
70830;SHT30;58451;51.550;7.208;2023-10-08T07:10:26;16.98;72.87
70830;SHT30;58451;51.550;7.208;2023-10-08T07:12:01;16.96;73.42
70830;SHT30;58451;51.550;7.208;2023-10-08T07:13:37;16.90;73.73
70830;SHT30;58451;51.550;7.208;2023-10-08T07:15:11;16.81;74.25
70830;SHT30;58451;51.550;7.208;2023-10-08T07:16:44;16.69;74.52
70830;SHT30;58451;51.550;7.208;2023-10-08T07:18:19;16.58;75.05
70830;SHT30;58451;51.550;7.208;2023-10-08T07:19:56;16.43;75.25
70830;SHT30;58451;51.550;7.208;2023-10-08T07:21:29;16.32;75.17
70830;SHT30;58451;51.550;7.208;2023-10-08T07:23:09;16.26;75.45
70830;SHT30;58451;51.550;7.208;2023-10-08T07:24:49;16.14;75.47
70830;SHT30;58451;51.550;7.208;2023-10-08T07:26:23;16.04;75.28
70830;SHT30;58451;51.550;7.208;2023-10-08T07:28:08;15.94;75.32
70830;SHT30;58451;51.550;7.208;2023-10-08T07:29:43;15.85;75.52
70830;SHT30;58451;51.550;7.208;2023-10-08T07:31:22;15.73;75.48
70830;SHT30;58451;51.550;7.208;2023-10-08T07:32:55;15.64;75.62
70830;SHT30;58451;51.550;7.208;2023-10-08T07:34:29;15.58;75.48
70830;SHT30;58451;51.550;7.208;2023-10-08T07:36:03;15.54;75.57
70830;SHT30;58451;51.550;7.208;2023-10-08T07:37:43;15.51;75.55
70830;SHT30;58451;51.550;7.208;2023-10-08T07:39:17;15.49;75.78
70830;SHT30;58451;51.550;7.208;2023-10-08T07:41:03;15.44;75.77
70830;SHT30;58451;51.550;7.208;2023-10-08T07:42:37;15.44;75.87
70830;SHT30;58451;51.550;7.208;2023-10-08T07:44:09;15.45;75.83
70830;SHT30;58451;51.550;7.208;2023-10-08T07:45:41;15.47;76.05
70830;SHT30;58451;51.550;7.208;2023-10-08T07:47:16;15.45;75.85
70830;SHT30;58451;51.550;7.208;2023-10-08T07:48:55;15.47;75.92
70830;SHT30;58451;51.550;7.208;2023-10-08T07:50:29;15.49;75.93
70830;SHT30;58451;51.550;7.208;2023-10-08T07:52:03;15.48;75.95
70830;SHT30;58451;51.550;7.208;2023-10-08T07:53:35;15.46;75.92
70830;SHT30;58451;51.550;7.208;2023-10-08T07:55:10;15.45;75.95
70830;SHT30;58451;51.550;7.208;2023-10-08T07:56:52;15.46;76.03
70830;SHT30;58451;51.550;7.208;2023-10-08T07:58:46;15.44;75.98
70830;SHT30;58451;51.550;7.208;2023-10-08T08:00:19;15.44;76.03
70830;SHT30;58451;51.550;7.208;2023-10-08T08:01:55;15.47;76.48
70830;SHT30;58451;51.550;7.208;2023-10-08T08:03:27;15.46;76.50
70830;SHT30;58451;51.550;7.208;2023-10-08T08:04:59;15.45;76.32
70830;SHT30;58451;51.550;7.208;2023-10-08T08:06:31;15.45;76.45
70830;SHT30;58451;51.550;7.208;2023-10-08T08:08:05;15.43;76.30
70830;SHT30;58451;51.550;7.208;2023-10-08T08:09:37;15.43;76.35
70830;SHT30;58451;51.550;7.208;2023-10-08T08:11:10;15.42;76.35
70830;SHT30;58451;51.550;7.208;2023-10-08T08:12:48;15.41;76.33
70830;SHT30;58451;51.550;7.208;2023-10-08T08:14:23;15.40;76.30
70830;SHT30;58451;51.550;7.208;2023-10-08T08:15:57;15.40;76.35
70830;SHT30;58451;51.550;7.208;2023-10-08T08:17:29;15.41;76.30
70830;SHT30;58451;51.550;7.208;2023-10-08T08:19:02;15.42;76.45
70830;SHT30;58451;51.550;7.208;2023-10-08T08:20:34;15.39;76.57
70830;SHT30;58451;51.550;7.208;2023-10-08T08:22:10;15.39;76.55
70830;SHT30;58451;51.550;7.208;2023-10-08T08:23:52;15.40;76.48
70830;SHT30;58451;51.550;7.208;2023-10-08T08:25:39;15.41;76.43
70830;SHT30;58451;51.550;7.208;2023-10-08T08:27:39;15.40;76.40
70830;SHT30;58451;51.550;7.208;2023-10-08T08:29:11;15.38;76.42
70830;SHT30;58451;51.550;7.208;2023-10-08T08:30:47;15.36;76.37
70830;SHT30;58451;51.550;7.208;2023-10-08T08:32:19;15.37;76.63
70830;SHT30;58451;51.550;7.208;2023-10-08T08:33:53;15.40;76.53
70830;SHT30;58451;51.550;7.208;2023-10-08T08:35:27;15.43;76.60
70830;SHT30;58451;51.550;7.208;2023-10-08T08:36:59;15.46;76.50
70830;SHT30;58451;51.550;7.208;2023-10-08T08:38:31;15.47;76.42
70830;SHT30;58451;51.550;7.208;2023-10-08T08:40:04;15.45;76.28
70830;SHT30;58451;51.550;7.208;2023-10-08T08:41:49;15.45;76.15
70830;SHT30;58451;51.550;7.208;2023-10-08T08:43:30;15.45;76.07
70830;SHT30;58451;51.550;7.208;2023-10-08T08:45:06;15.44;76.03
70830;SHT30;58451;51.550;7.208;2023-10-08T08:46:44;15.42;76.00
70830;SHT30;58451;51.550;7.208;2023-10-08T08:48:18;15.43;75.98
70830;SHT30;58451;51.550;7.208;2023-10-08T08:49:50;15.44;75.97
70830;SHT30;58451;51.550;7.208;2023-10-08T08:51:27;15.44;75.87
70830;SHT30;58451;51.550;7.208;2023-10-08T08:53:01;15.45;75.82
70830;SHT30;58451;51.550;7.208;2023-10-08T08:54:35;15.44;75.70
70830;SHT30;58451;51.550;7.208;2023-10-08T08:56:08;15.44;75.67
70830;SHT30;58451;51.550;7.208;2023-10-08T08:57:41;15.40;75.58
70830;SHT30;58451;51.550;7.208;2023-10-08T08:59:18;15.38;75.60
70830;SHT30;58451;51.550;7.208;2023-10-08T09:00:52;15.35;75.55
70830;SHT30;58451;51.550;7.208;2023-10-08T09:02:27;15.35;75.55
70830;SHT30;58451;51.550;7.208;2023-10-08T09:04:00;15.34;75.45
70830;SHT30;58451;51.550;7.208;2023-10-08T09:05:39;15.34;75.50
70830;SHT30;58451;51.550;7.208;2023-10-08T09:07:14;15.34;75.53
70830;SHT30;58451;51.550;7.208;2023-10-08T09:08:47;15.38;75.38
70830;SHT30;58451;51.550;7.208;2023-10-08T09:10:21;15.42;75.23
70830;SHT30;58451;51.550;7.208;2023-10-08T09:11:59;15.45;75.12
70830;SHT30;58451;51.550;7.208;2023-10-08T09:13:32;15.44;75.05
70830;SHT30;58451;51.550;7.208;2023-10-08T09:15:04;15.44;75.08
70830;SHT30;58451;51.550;7.208;2023-10-08T09:16:40;15.40;75.12
70830;SHT30;58451;51.550;7.208;2023-10-08T09:18:12;15.35;75.18
70830;SHT30;58451;51.550;7.208;2023-10-08T09:19:45;15.32;75.25
70830;SHT30;58451;51.550;7.208;2023-10-08T09:21:19;15.33;75.25
70830;SHT30;58451;51.550;7.208;2023-10-08T09:23:10;15.30;75.25
70830;SHT30;58451;51.550;7.208;2023-10-08T09:24:49;15.27;75.38
70830;SHT30;58451;51.550;7.208;2023-10-08T09:26:24;15.23;75.47
70830;SHT30;58451;51.550;7.208;2023-10-08T09:28:01;15.22;75.57
70830;SHT30;58451;51.550;7.208;2023-10-08T09:29:36;15.19;75.70
70830;SHT30;58451;51.550;7.208;2023-10-08T09:31:12;15.20;75.68
70830;SHT30;58451;51.550;7.208;2023-10-08T09:32:45;15.20;75.73
70830;SHT30;58451;51.550;7.208;2023-10-08T09:34:25;15.24;75.82
70830;SHT30;58451;51.550;7.208;2023-10-08T09:36:01;15.26;75.87
70830;SHT30;58451;51.550;7.208;2023-10-08T09:37:34;15.30;75.78
70830;SHT30;58451;51.550;7.208;2023-10-08T09:39:07;15.31;75.63
70830;SHT30;58451;51.550;7.208;2023-10-08T09:40:44;15.32;75.58
70830;SHT30;58451;51.550;7.208;2023-10-08T09:42:16;15.33;75.47
70830;SHT30;58451;51.550;7.208;2023-10-08T09:43:53;15.32;75.13
70830;SHT30;58451;51.550;7.208;2023-10-08T09:45:26;15.32;75.10
70830;SHT30;58451;51.550;7.208;2023-10-08T09:47:02;15.36;75.00
70830;SHT30;58451;51.550;7.208;2023-10-08T09:48:42;15.41;74.80
70830;SHT30;58451;51.550;7.208;2023-10-08T09:50:27;15.55;74.68
70830;SHT30;58451;51.550;7.208;2023-10-08T09:52:04;15.69;74.45
70830;SHT30;58451;51.550;7.208;2023-10-08T09:53:41;15.82;74.10
70830;SHT30;58451;51.550;7.208;2023-10-08T09:55:49;15.97;74.03
70830;SHT30;58451;51.550;7.208;2023-10-08T09:57:26;16.12;73.80
70830;SHT30;58451;51.550;7.208;2023-10-08T09:58:58;16.20;73.57
70830;SHT30;58451;51.550;7.208;2023-10-08T10:00:31;16.28;73.27
70830;SHT30;58451;51.550;7.208;2023-10-08T10:02:04;16.41;73.00
70830;SHT30;58451;51.550;7.208;2023-10-08T10:03:41;16.50;72.82
70830;SHT30;58451;51.550;7.208;2023-10-08T10:05:19;16.57;72.43
70830;SHT30;58451;51.550;7.208;2023-10-08T10:06:56;16.64;71.97
70830;SHT30;58451;51.550;7.208;2023-10-08T10:08:31;16.67;71.43
70830;SHT30;58451;51.550;7.208;2023-10-08T10:10:24;16.61;71.62
70830;SHT30;58451;51.550;7.208;2023-10-08T10:12:05;16.61;71.65
70830;SHT30;58451;51.550;7.208;2023-10-08T10:13:42;16.70;71.68